Main page
METAR-TAF:

METAR-TAF

Airports :

Arvidsjaur Airport

Arvidsjaur, Sweden

latitude: 65-35-25N, longitude: 019-16-55E, elevation: 379 m

Current weather observation

The report was made 11 minutes ago, at 09:50 UTC
Wind 23 kt from the West
Temperature -3°C
Humidity 63%
Pressure 988 hPa
Visibility 10 km or more
no clouds below 1500 m and no cumulonimbus

METAR: ESNX 240950Z 28023KT CAVOK M03/M09 Q0988

Time: 11:01 (10:01 UTC)

Forecast

The report was made 1 hour and 31 minutes ago, at 08:30 UTC
Forecast valid from 24 at 09 UTC to 24 at 18 UTC
Wind 18 kt from the West with gusts up to 28 kt
Visibility 10 km or more
no clouds below 1500 m and no cumulonimbus
Becoming
from 24 at 14 UTC to 24 at 16 UTC
Wind 10 kt from the West/Northwest

TAF: ESNX 240830Z 2409/2418 28018G28KT CAVOK BECMG 2414/2416 29010KT

Weather observations and forecasts of more than 4000 airports (METAR and TAF reports).

The available stations are represented by yellow and red dots on the map.

Hover mouse over dot to see the name of the station.

Then click to see weather observations and forecasts.

To change the map : click on the green buttons with a black cross to zoom in, on the green button with a dash to zoom out, or on the green arrows for adjacent maps.


METAR-TAF: